sensor_id;sensor_type;location;lat;lon;timestamp;pressure;altitude;pressure_sealevel;temperature;humidity
74680;BME280;63211;48.548;2.704;2023-01-19T00:00:43;99855.03;;;17.59;49.56
74680;BME280;63211;48.548;2.704;2023-01-19T00:03:11;99833.69;;;17.39;49.69
74680;BME280;63211;48.548;2.704;2023-01-19T00:05:40;99854.09;;;17.53;49.81
74680;BME280;63211;48.548;2.704;2023-01-19T00:08:07;99860.84;;;17.51;49.85
74680;BME280;63211;48.548;2.704;2023-01-19T00:10:40;99854.00;;;17.48;50.16
74680;BME280;63211;48.548;2.704;2023-01-19T00:13:06;99866.75;;;17.48;50.31
74680;BME280;63211;48.548;2.704;2023-01-19T00:15:33;99855.63;;;17.49;50.03
74680;BME280;63211;48.548;2.704;2023-01-19T00:18:00;99859.78;;;17.52;49.00
74680;BME280;63211;48.548;2.704;2023-01-19T00:20:28;99862.25;;;17.53;49.44
74680;BME280;63211;48.548;2.704;2023-01-19T00:22:56;99868.31;;;17.56;49.45
74680;BME280;63211;48.548;2.704;2023-01-19T00:25:23;99869.94;;;17.57;49.80
74680;BME280;63211;48.548;2.704;2023-01-19T00:27:49;99872.19;;;17.60;49.78
74680;BME280;63211;48.548;2.704;2023-01-19T00:30:16;99845.38;;;17.40;49.50
74680;BME280;63211;48.548;2.704;2023-01-19T00:32:43;99882.03;;;17.61;49.64
74680;BME280;63211;48.548;2.704;2023-01-19T00:35:09;99885.34;;;17.63;49.55
74680;BME280;63211;48.548;2.704;2023-01-19T00:37:37;99882.41;;;17.64;49.85
74680;BME280;63211;48.548;2.704;2023-01-19T00:40:05;99885.72;;;17.66;49.93
74680;BME280;63211;48.548;2.704;2023-01-19T00:42:33;99895.50;;;17.67;49.99
74680;BME280;63211;48.548;2.704;2023-01-19T00:45:06;99892.56;;;17.69;49.91
74680;BME280;63211;48.548;2.704;2023-01-19T00:47:34;99892.31;;;17.70;49.33
74680;BME280;63211;48.548;2.704;2023-01-19T00:50:00;99886.63;;;17.72;48.99
74680;BME280;63211;48.548;2.704;2023-01-19T00:52:27;99887.69;;;17.71;48.72
74680;BME280;63211;48.548;2.704;2023-01-19T00:54:55;99896.94;;;17.70;48.34
74680;BME280;63211;48.548;2.704;2023-01-19T00:57:21;99894.69;;;17.67;48.30
74680;BME280;63211;48.548;2.704;2023-01-19T00:59:48;99896.22;;;17.63;48.35
74680;BME280;63211;48.548;2.704;2023-01-19T01:02:15;99909.25;;;17.61;48.71
74680;BME280;63211;48.548;2.704;2023-01-19T01:04:42;99924.16;;;17.58;48.79
74680;BME280;63211;48.548;2.704;2023-01-19T01:07:08;99920.59;;;17.58;48.83
74680;BME280;63211;48.548;2.704;2023-01-19T01:09:35;99927.47;;;17.60;49.14
74680;BME280;63211;48.548;2.704;2023-01-19T01:12:03;99922.63;;;17.62;48.80
74680;BME280;63211;48.548;2.704;2023-01-19T01:14:30;99923.81;;;17.66;48.97
74680;BME280;63211;48.548;2.704;2023-01-19T01:16:56;99920.28;;;17.66;49.46
74680;BME280;63211;48.548;2.704;2023-01-19T01:19:23;99915.66;;;17.66;49.33
74680;BME280;63211;48.548;2.704;2023-01-19T01:21:50;99912.56;;;17.63;49.47
74680;BME280;63211;48.548;2.704;2023-01-19T01:24:16;99925.22;;;17.69;49.38
74680;BME280;63211;48.548;2.704;2023-01-19T01:26:45;99933.38;;;17.69;49.54
74680;BME280;63211;48.548;2.704;2023-01-19T01:29:13;99939.41;;;17.71;49.63
74680;BME280;63211;48.548;2.704;2023-01-19T01:31:39;99941.91;;;17.72;49.82
74680;BME280;63211;48.548;2.704;2023-01-19T01:34:06;99939.78;;;17.74;49.81
74680;BME280;63211;48.548;2.704;2023-01-19T01:36:33;99942.25;;;17.76;49.99
74680;BME280;63211;48.548;2.704;2023-01-19T01:39:00;99940.38;;;17.76;50.03
74680;BME280;63211;48.548;2.704;2023-01-19T01:41:26;99944.50;;;17.79;49.71
74680;BME280;63211;48.548;2.704;2023-01-19T01:43:55;99933.97;;;17.71;49.30
74680;BME280;63211;48.548;2.704;2023-01-19T01:46:25;99949.47;;;17.82;48.55
74680;BME280;63211;48.548;2.704;2023-01-19T01:48:58;99955.16;;;17.80;48.69
74680;BME280;63211;48.548;2.704;2023-01-19T01:51:30;99955.63;;;17.77;47.88
74680;BME280;63211;48.548;2.704;2023-01-19T01:54:04;99949.00;;;17.73;47.54
74680;BME280;63211;48.548;2.704;2023-01-19T01:56:35;99949.47;;;17.70;47.34
74680;BME280;63211;48.548;2.704;2023-01-19T01:59:05;99947.22;;;17.67;47.63
74680;BME280;63211;48.548;2.704;2023-01-19T02:01:34;99945.59;;;17.66;47.87
74680;BME280;63211;48.548;2.704;2023-01-19T02:04:19;99953.78;;;17.66;48.08
74680;BME280;63211;48.548;2.704;2023-01-19T02:06:47;99948.56;;;17.65;48.28
74680;BME280;63211;48.548;2.704;2023-01-19T02:09:33;99966.63;;;17.71;48.95
74680;BME280;63211;48.548;2.704;2023-01-19T02:12:19;99940.72;;;17.57;49.29
74680;BME280;63211;48.548;2.704;2023-01-19T02:15:04;99968.88;;;17.74;49.37
74680;BME280;63211;48.548;2.704;2023-01-19T02:17:33;99975.16;;;17.74;49.67
74680;BME280;63211;48.548;2.704;2023-01-19T02:19:59;99971.84;;;17.72;49.75
74680;BME280;63211;48.548;2.704;2023-01-19T02:22:30;99969.38;;;17.71;49.65
74680;BME280;63211;48.548;2.704;2023-01-19T02:25:02;99983.94;;;17.76;49.42
74680;BME280;63211;48.548;2.704;2023-01-19T02:27:30;99977.88;;;17.74;49.33
74680;BME280;63211;48.548;2.704;2023-01-19T02:29:57;99987.00;;;17.80;49.34
74680;BME280;63211;48.548;2.704;2023-01-19T02:32:24;99986.78;;;17.81;49.54
74680;BME280;63211;48.548;2.704;2023-01-19T02:34:51;99985.69;;;17.82;49.60
74680;BME280;63211;48.548;2.704;2023-01-19T02:37:18;99979.19;;;17.83;49.48
74680;BME280;63211;48.548;2.704;2023-01-19T02:39:49;99987.94;;;17.85;48.79
74680;BME280;63211;48.548;2.704;2023-01-19T02:42:22;99987.94;;;17.85;48.32
74680;BME280;63211;48.548;2.704;2023-01-19T02:44:52;99985.22;;;17.85;48.24
74680;BME280;63211;48.548;2.704;2023-01-19T02:47:20;99992.22;;;17.81;47.67
74680;BME280;63211;48.548;2.704;2023-01-19T02:49:53;99988.53;;;17.76;47.35
74680;BME280;63211;48.548;2.704;2023-01-19T02:52:20;100007.38;;;17.77;47.43
74680;BME280;63211;48.548;2.704;2023-01-19T02:54:56;100000.13;;;17.71;47.10
74680;BME280;63211;48.548;2.704;2023-01-19T02:57:52;100003.94;;;17.70;47.24
74680;BME280;63211;48.548;2.704;2023-01-19T03:00:30;99997.19;;;17.73;47.95
74680;BME280;63211;48.548;2.704;2023-01-19T03:03:12;99996.72;;;17.76;47.98
74680;BME280;63211;48.548;2.704;2023-01-19T03:05:54;99991.84;;;17.78;48.58
74680;BME280;63211;48.548;2.704;2023-01-19T03:08:30;100000.03;;;17.78;48.68
74680;BME280;63211;48.548;2.704;2023-01-19T03:11:01;100009.84;;;17.79;48.58
74680;BME280;63211;48.548;2.704;2023-01-19T03:13:36;99998.13;;;17.78;48.56
74680;BME280;63211;48.548;2.704;2023-01-19T03:16:13;100000.63;;;17.80;48.96
74680;BME280;63211;48.548;2.704;2023-01-19T03:18:44;100002.50;;;17.79;48.98
74680;BME280;63211;48.548;2.704;2023-01-19T03:21:12;100004.75;;;17.82;48.76
74680;BME280;63211;48.548;2.704;2023-01-19T03:23:41;100001.81;;;17.84;49.18
74680;BME280;63211;48.548;2.704;2023-01-19T03:26:15;99990.56;;;17.80;48.89
74680;BME280;63211;48.548;2.704;2023-01-19T03:28:45;99991.75;;;17.84;48.82
74680;BME280;63211;48.548;2.704;2023-01-19T03:31:14;99994.78;;;17.88;48.83
74680;BME280;63211;48.548;2.704;2023-01-19T03:33:46;99991.50;;;17.86;48.38
74680;BME280;63211;48.548;2.704;2023-01-19T03:36:18;99995.38;;;17.90;48.18
74680;BME280;63211;48.548;2.704;2023-01-19T03:38:47;100002.97;;;17.88;47.78
74680;BME280;63211;48.548;2.704;2023-01-19T03:41:16;99995.53;;;17.83;47.28
74680;BME280;63211;48.548;2.704;2023-01-19T03:43:46;99994.09;;;17.81;46.76
74680;BME280;63211;48.548;2.704;2023-01-19T03:46:16;99992.69;;;17.78;46.90
74680;BME280;63211;48.548;2.704;2023-01-19T03:48:44;99994.00;;;17.76;46.74
74680;BME280;63211;48.548;2.704;2023-01-19T03:51:11;99989.00;;;17.73;46.57
74680;BME280;63211;48.548;2.704;2023-01-19T03:53:39;99996.94;;;17.74;47.48
74680;BME280;63211;48.548;2.704;2023-01-19T03:56:08;99988.06;;;17.79;47.68
74680;BME280;63211;48.548;2.704;2023-01-19T03:58:42;99984.28;;;17.80;48.08
74680;BME280;63211;48.548;2.704;2023-01-19T04:01:10;99985.34;;;17.79;48.63
74680;BME280;63211;48.548;2.704;2023-01-19T04:03:36;99987.00;;;17.80;48.36
74680;BME280;63211;48.548;2.704;2023-01-19T04:06:03;99957.66;;;17.59;48.40
74680;BME280;63211;48.548;2.704;2023-01-19T04:08:30;99990.56;;;17.80;48.31
74680;BME280;63211;48.548;2.704;2023-01-19T04:10:57;99981.44;;;17.75;48.26
74680;BME280;63211;48.548;2.704;2023-01-19T04:13:23;99990.09;;;17.83;48.44
74680;BME280;63211;48.548;2.704;2023-01-19T04:15:51;99996.34;;;17.84;47.98
74680;BME280;63211;48.548;2.704;2023-01-19T04:18:19;99993.41;;;17.85;48.31
74680;BME280;63211;48.548;2.704;2023-01-19T04:20:46;100001.31;;;17.87;48.38
74680;BME280;63211;48.548;2.704;2023-01-19T04:23:12;99999.41;;;17.88;48.32
74680;BME280;63211;48.548;2.704;2023-01-19T04:25:39;100001.06;;;17.89;47.96
74680;BME280;63211;48.548;2.704;2023-01-19T04:28:05;100005.22;;;17.91;47.82
74680;BME280;63211;48.548;2.704;2023-01-19T04:30:32;99998.84;;;17.85;47.29
74680;BME280;63211;48.548;2.704;2023-01-19T04:32:59;100004.84;;;17.88;47.35
74680;BME280;63211;48.548;2.704;2023-01-19T04:35:27;100008.06;;;17.84;46.87
74680;BME280;63211;48.548;2.704;2023-01-19T04:37:54;100007.72;;;17.81;46.45
74680;BME280;63211;48.548;2.704;2023-01-19T04:40:20;100002.75;;;17.78;46.39
74680;BME280;63211;48.548;2.704;2023-01-19T04:42:47;100013.03;;;17.76;46.71
74680;BME280;63211;48.548;2.704;2023-01-19T04:45:14;100006.19;;;17.73;47.21
74680;BME280;63211;48.548;2.704;2023-01-19T04:47:41;100014.47;;;17.78;46.84
74680;BME280;63211;48.548;2.704;2023-01-19T04:50:09;100017.78;;;17.80;47.38
74680;BME280;63211;48.548;2.704;2023-01-19T04:52:37;100018.63;;;17.81;47.43
74680;BME280;63211;48.548;2.704;2023-01-19T04:55:05;100013.03;;;17.76;48.04
74680;BME280;63211;48.548;2.704;2023-01-19T04:57:32;100005.94;;;17.75;47.96
74680;BME280;63211;48.548;2.704;2023-01-19T04:59:59;100023.00;;;17.82;48.01
74680;BME280;63211;48.548;2.704;2023-01-19T05:02:25;100018.38;;;17.82;48.10
74680;BME280;63211;48.548;2.704;2023-01-19T05:04:52;100022.75;;;17.83;47.93
74680;BME280;63211;48.548;2.704;2023-01-19T05:07:18;100001.19;;;17.70;48.02
74680;BME280;63211;48.548;2.704;2023-01-19T05:09:46;100022.16;;;17.81;48.06
74680;BME280;63211;48.548;2.704;2023-01-19T05:12:13;100021.47;;;17.86;48.05
74680;BME280;63211;48.548;2.704;2023-01-19T05:14:40;100023.13;;;17.87;47.96
74680;BME280;63211;48.548;2.704;2023-01-19T05:17:07;100026.63;;;17.88;48.46
74680;BME280;63211;48.548;2.704;2023-01-19T05:19:34;100022.84;;;17.89;48.12
74680;BME280;63211;48.548;2.704;2023-01-19T05:22:01;100016.09;;;17.91;47.69
74680;BME280;63211;48.548;2.704;2023-01-19T05:24:28;100021.31;;;17.93;47.39
74680;BME280;63211;48.548;2.704;2023-01-19T05:26:57;100018.22;;;17.89;46.96
74680;BME280;63211;48.548;2.704;2023-01-19T05:29:23;100014.94;;;17.87;46.59
74680;BME280;63211;48.548;2.704;2023-01-19T05:31:50;99990.56;;;17.69;46.47
74680;BME280;63211;48.548;2.704;2023-01-19T05:34:17;100013.16;;;17.81;46.21
74680;BME280;63211;48.548;2.704;2023-01-19T05:36:44;100013.41;;;17.79;46.20
74680;BME280;63211;48.548;2.704;2023-01-19T05:39:10;100012.22;;;17.75;46.58
74680;BME280;63211;48.548;2.704;2023-01-19T05:41:37;100009.25;;;17.77;47.12
74680;BME280;63211;48.548;2.704;2023-01-19T05:44:05;100012.34;;;17.80;46.81
74680;BME280;63211;48.548;2.704;2023-01-19T05:46:32;100008.56;;;17.81;47.25
74680;BME280;63211;48.548;2.704;2023-01-19T05:48:58;100007.72;;;17.81;47.80
74680;BME280;63211;48.548;2.704;2023-01-19T05:51:28;100007.47;;;17.82;47.83
74680;BME280;63211;48.548;2.704;2023-01-19T05:53:59;100011.03;;;17.83;47.62
74680;BME280;63211;48.548;2.704;2023-01-19T05:56:26;100022.75;;;17.83;47.39
74680;BME280;63211;48.548;2.704;2023-01-19T05:58:53;100018.13;;;17.84;47.80
74680;BME280;63211;48.548;2.704;2023-01-19T06:01:21;100025.25;;;17.85;47.51
74680;BME280;63211;48.548;2.704;2023-01-19T06:03:47;100020.63;;;17.85;45.87
74680;BME280;63211;48.548;2.704;2023-01-19T06:06:14;100028.28;;;17.89;47.22
74680;BME280;63211;48.548;2.704;2023-01-19T06:08:41;100023.91;;;17.88;44.73
74680;BME280;63211;48.548;2.704;2023-01-19T06:11:09;100031.03;;;17.89;44.68
74680;BME280;63211;48.548;2.704;2023-01-19T06:13:35;100028.28;;;17.89;46.73
74680;BME280;63211;48.548;2.704;2023-01-19T06:16:04;100027.97;;;17.85;47.28
74680;BME280;63211;48.548;2.704;2023-01-19T06:18:32;100042.28;;;17.80;47.44
74680;BME280;63211;48.548;2.704;2023-01-19T06:21:02;100037.56;;;17.76;47.47
74680;BME280;63211;48.548;2.704;2023-01-19T06:23:30;100035.53;;;17.71;47.63
74680;BME280;63211;48.548;2.704;2023-01-19T06:25:57;100037.34;;;17.66;47.42
74680;BME280;63211;48.548;2.704;2023-01-19T06:28:23;100041.31;;;17.63;47.57
74680;BME280;63211;48.548;2.704;2023-01-19T06:30:51;100036.34;;;17.60;47.72
74680;BME280;63211;48.548;2.704;2023-01-19T06:33:18;100042.84;;;17.59;47.40
74680;BME280;63211;48.548;2.704;2023-01-19T06:35:48;100053.91;;;17.64;46.34
74680;BME280;63211;48.548;2.704;2023-01-19T06:38:15;100052.56;;;17.67;44.45
74680;BME280;63211;48.548;2.704;2023-01-19T06:40:43;100056.13;;;17.67;42.72
74680;BME280;63211;48.548;2.704;2023-01-19T06:43:10;100065.13;;;17.68;42.62
74680;BME280;63211;48.548;2.704;2023-01-19T06:45:37;100067.84;;;17.68;42.32
74680;BME280;63211;48.548;2.704;2023-01-19T06:48:04;100067.38;;;17.71;46.10
74680;BME280;63211;48.548;2.704;2023-01-19T06:50:31;100066.78;;;17.69;48.86
74680;BME280;63211;48.548;2.704;2023-01-19T06:52:59;100069.16;;;17.65;48.67
74680;BME280;63211;48.548;2.704;2023-01-19T06:55:26;100065.47;;;17.71;47.16
74680;BME280;63211;48.548;2.704;2023-01-19T06:57:55;100047.41;;;17.65;46.74
74680;BME280;63211;48.548;2.704;2023-01-19T07:00:23;100072.47;;;17.79;48.03
74680;BME280;63211;48.548;2.704;2023-01-19T07:02:50;100076.03;;;17.79;47.46
74680;BME280;63211;48.548;2.704;2023-01-19T07:05:16;100069.16;;;17.77;48.25
74680;BME280;63211;48.548;2.704;2023-01-19T07:07:43;100072.81;;;17.71;48.28
74680;BME280;63211;48.548;2.704;2023-01-19T07:10:11;100073.56;;;17.66;48.34
74680;BME280;63211;48.548;2.704;2023-01-19T07:12:40;100072.56;;;17.61;48.69
74680;BME280;63211;48.548;2.704;2023-01-19T07:15:07;100070.06;;;17.59;48.46
74680;BME280;63211;48.548;2.704;2023-01-19T07:17:36;100072.44;;;17.56;48.37
74680;BME280;63211;48.548;2.704;2023-01-19T07:20:03;100069.94;;;17.54;48.44
74680;BME280;63211;48.548;2.704;2023-01-19T07:22:30;100069.34;;;17.52;48.14
74680;BME280;63211;48.548;2.704;2023-01-19T07:24:56;100064.72;;;17.52;48.04
74680;BME280;63211;48.548;2.704;2023-01-19T07:27:25;100070.53;;;17.56;47.90
74680;BME280;63211;48.548;2.704;2023-01-19T07:29:53;100065.47;;;17.60;47.29
74680;BME280;63211;48.548;2.704;2023-01-19T07:32:19;100058.34;;;17.59;47.71
74680;BME280;63211;48.548;2.704;2023-01-19T07:34:46;100067.13;;;17.61;47.54
74680;BME280;63211;48.548;2.704;2023-01-19T07:37:12;100073.16;;;17.63;48.14
74680;BME280;63211;48.548;2.704;2023-01-19T07:39:39;100063.34;;;17.62;48.35
74680;BME280;63211;48.548;2.704;2023-01-19T07:42:06;100072.97;;;17.64;48.32
74680;BME280;63211;48.548;2.704;2023-01-19T07:44:34;100065.81;;;17.63;47.90
74680;BME280;63211;48.548;2.704;2023-01-19T07:47:01;100065.63;;;17.65;48.34
74680;BME280;63211;48.548;2.704;2023-01-19T07:49:28;100075.19;;;17.67;48.37
74680;BME280;63211;48.548;2.704;2023-01-19T07:51:55;100068.91;;;17.67;48.59
74680;BME280;63211;48.548;2.704;2023-01-19T07:54:21;100067.84;;;17.68;48.14
74680;BME280;63211;48.548;2.704;2023-01-19T07:56:48;100077.66;;;17.69;48.20
74680;BME280;63211;48.548;2.704;2023-01-19T07:59:15;100079.00;;;17.66;48.45
74680;BME280;63211;48.548;2.704;2023-01-19T08:01:43;100074.22;;;17.62;48.38
74680;BME280;63211;48.548;2.704;2023-01-19T08:04:09;100074.69;;;17.59;48.69
74680;BME280;63211;48.548;2.704;2023-01-19T08:06:37;100086.28;;;17.54;48.47
74680;BME280;63211;48.548;2.704;2023-01-19T08:09:05;100077.16;;;17.48;48.61
74680;BME280;63211;48.548;2.704;2023-01-19T08:11:32;100077.16;;;17.48;48.61
74680;BME280;63211;48.548;2.704;2023-01-19T08:13:59;100057.88;;;17.38;48.52
74680;BME280;63211;48.548;2.704;2023-01-19T08:16:25;100059.53;;;17.39;47.92
74680;BME280;63211;48.548;2.704;2023-01-19T08:18:54;100080.94;;;17.47;47.83
74680;BME280;63211;48.548;2.704;2023-01-19T08:21:21;100080.47;;;17.50;46.96
74680;BME280;63211;48.548;2.704;2023-01-19T08:23:51;100078.22;;;17.47;47.16
74680;BME280;63211;48.548;2.704;2023-01-19T08:26:18;100085.34;;;17.60;47.08
74680;BME280;63211;48.548;2.704;2023-01-19T08:28:45;100095.41;;;17.60;48.22
74680;BME280;63211;48.548;2.704;2023-01-19T08:31:12;100101.53;;;17.55;49.28
74680;BME280;63211;48.548;2.704;2023-01-19T08:33:39;100103.31;;;17.49;48.41
74680;BME280;63211;48.548;2.704;2023-01-19T08:36:08;100106.25;;;17.48;49.23
74680;BME280;63211;48.548;2.704;2023-01-19T08:38:35;100107.31;;;17.47;49.18
74680;BME280;63211;48.548;2.704;2023-01-19T08:41:04;100104.59;;;17.47;48.98
74680;BME280;63211;48.548;2.704;2023-01-19T08:43:31;100106.75;;;17.45;48.86
74680;BME280;63211;48.548;2.704;2023-01-19T08:45:58;100111.47;;;17.49;46.85
74680;BME280;63211;48.548;2.704;2023-01-19T08:48:24;100107.59;;;17.57;46.62
74680;BME280;63211;48.548;2.704;2023-01-19T08:50:52;100104.75;;;17.64;48.93
74680;BME280;63211;48.548;2.704;2023-01-19T08:53:20;100113.28;;;17.67;49.10
74680;BME280;63211;48.548;2.704;2023-01-19T08:55:48;100106.78;;;17.68;49.49
74680;BME280;63211;48.548;2.704;2023-01-19T08:58:15;100099.22;;;17.70;49.20
74680;BME280;63211;48.548;2.704;2023-01-19T09:00:42;100103.59;;;17.71;48.53
74680;BME280;63211;48.548;2.704;2023-01-19T09:03:10;100105.38;;;17.77;48.59
74680;BME280;63211;48.548;2.704;2023-01-19T09:05:38;100119.00;;;17.77;49.05
74680;BME280;63211;48.548;2.704;2023-01-19T09:08:06;100118.75;;;17.79;49.09
74680;BME280;63211;48.548;2.704;2023-01-19T09:10:34;100116.03;;;17.79;49.08
74680;BME280;63211;48.548;2.704;2023-01-19T09:13:02;100110.38;;;17.80;49.00
74680;BME280;63211;48.548;2.704;2023-01-19T09:15:29;100113.44;;;17.84;48.96
74680;BME280;63211;48.548;2.704;2023-01-19T09:17:58;100108.59;;;17.86;48.79
74680;BME280;63211;48.548;2.704;2023-01-19T09:20:25;100095.69;;;17.81;48.72
74680;BME280;63211;48.548;2.704;2023-01-19T09:22:54;100102.66;;;17.89;48.55
74680;BME280;63211;48.548;2.704;2023-01-19T09:25:21;100109.53;;;17.92;48.42
74680;BME280;63211;48.548;2.704;2023-01-19T09:27:49;100110.34;;;17.92;48.33
74680;BME280;63211;48.548;2.704;2023-01-19T09:30:17;100107.41;;;17.94;48.46
74680;BME280;63211;48.548;2.704;2023-01-19T09:32:44;100108.22;;;17.94;48.25
74680;BME280;63211;48.548;2.704;2023-01-19T09:35:11;100106.34;;;17.95;48.24
74680;BME280;63211;48.548;2.704;2023-01-19T09:37:38;100106.69;;;17.98;47.45
74680;BME280;63211;48.548;2.704;2023-01-19T09:40:05;100117.81;;;17.97;48.49
74680;BME280;63211;48.548;2.704;2023-01-19T09:42:37;100121.84;;;17.94;48.05
74680;BME280;63211;48.548;2.704;2023-01-19T09:45:14;100117.22;;;17.95;47.75
74680;BME280;63211;48.548;2.704;2023-01-19T09:47:43;100111.19;;;17.93;48.03
74680;BME280;63211;48.548;2.704;2023-01-19T09:50:15;100109.75;;;17.90;48.22
74680;BME280;63211;48.548;2.704;2023-01-19T09:52:47;100115.44;;;17.89;48.15
74680;BME280;63211;48.548;2.704;2023-01-19T09:55:21;100117.00;;;17.84;48.02
74680;BME280;63211;48.548;2.704;2023-01-19T09:57:48;100115.34;;;17.83;48.27
74680;BME280;63211;48.548;2.704;2023-01-19T10:00:17;100112.84;;;17.82;48.07
74680;BME280;63211;48.548;2.704;2023-01-19T10:02:47;100109.31;;;17.81;48.43
74680;BME280;63211;48.548;2.704;2023-01-19T10:05:25;100112.03;;;17.81;48.02
74680;BME280;63211;48.548;2.704;2023-01-19T10:07:57;100109.53;;;17.80;47.91
74680;BME280;63211;48.548;2.704;2023-01-19T10:10:29;100107.63;;;17.80;47.93
74680;BME280;63211;48.548;2.704;2023-01-19T10:13:12;100112.03;;;17.81;47.90
74680;BME280;63211;48.548;2.704;2023-01-19T10:15:49;100115.56;;;17.82;47.81
74680;BME280;63211;48.548;2.704;2023-01-19T10:18:20;100112.84;;;17.82;47.80
74680;BME280;63211;48.548;2.704;2023-01-19T10:20:51;100119.38;;;17.81;47.65
74680;BME280;63211;48.548;2.704;2023-01-19T10:23:31;100115.81;;;17.80;47.63
74680;BME280;63211;48.548;2.704;2023-01-19T10:26:03;100113.91;;;17.81;47.55
74680;BME280;63211;48.548;2.704;2023-01-19T10:28:32;100109.53;;;17.80;47.48
74680;BME280;63211;48.548;2.704;2023-01-19T10:31:00;100107.88;;;17.79;47.39
74680;BME280;63211;48.548;2.704;2023-01-19T10:33:29;100113.09;;;17.80;47.50
74680;BME280;63211;48.548;2.704;2023-01-19T10:35:57;100111.44;;;17.79;47.48
74680;BME280;63211;48.548;2.704;2023-01-19T10:38:24;100104.78;;;17.75;47.27
74680;BME280;63211;48.548;2.704;2023-01-19T10:40:57;100104.56;;;17.77;47.83
74680;BME280;63211;48.548;2.704;2023-01-19T10:43:39;100093.78;;;17.70;48.16
74680;BME280;63211;48.548;2.704;2023-01-19T10:46:19;100102.53;;;17.72;47.75
74680;BME280;63211;48.548;2.704;2023-01-19T10:48:48;100086.91;;;17.68;47.75
74680;BME280;63211;48.548;2.704;2023-01-19T10:51:15;100092.34;;;17.68;47.70
74680;BME280;63211;48.548;2.704;2023-01-19T10:53:56;100092.59;;;17.66;47.90
74680;BME280;63211;48.548;2.704;2023-01-19T10:56:25;100092.84;;;17.65;47.87
74680;BME280;63211;48.548;2.704;2023-01-19T10:58:52;100090.13;;;17.65;48.08
74680;BME280;63211;48.548;2.704;2023-01-19T11:01:23;100090.13;;;17.65;47.44
74680;BME280;63211;48.548;2.704;2023-01-19T11:03:51;100091.16;;;17.64;47.68
74680;BME280;63211;48.548;2.704;2023-01-19T11:06:24;100086.56;;;17.64;47.83
74680;BME280;63211;48.548;2.704;2023-01-19T11:08:53;100081.31;;;17.63;47.67
74680;BME280;63211;48.548;2.704;2023-01-19T11:11:41;100081.31;;;17.63;47.21
74680;BME280;63211;48.548;2.704;2023-01-19T11:14:10;100073.16;;;17.63;47.59
74680;BME280;63211;48.548;2.704;2023-01-19T11:16:40;100066.88;;;17.62;47.65
74680;BME280;63211;48.548;2.704;2023-01-19T11:19:25;100059.53;;;17.63;47.53
74680;BME280;63211;48.548;2.704;2023-01-19T11:22:07;100064.78;;;17.64;46.86
74680;BME280;63211;48.548;2.704;2023-01-19T11:24:36;100042.13;;;17.52;47.41
74680;BME280;63211;48.548;2.704;2023-01-19T11:27:03;100053.91;;;17.64;47.34
74680;BME280;63211;48.548;2.704;2023-01-19T11:29:30;100055.75;;;17.64;47.21
74680;BME280;63211;48.548;2.704;2023-01-19T11:32:09;100059.09;;;17.66;45.79
74680;BME280;63211;48.548;2.704;2023-01-19T11:34:36;100052.00;;;17.65;46.59
74680;BME280;63211;48.548;2.704;2023-01-19T11:37:16;100052.44;;;17.62;47.26
74680;BME280;63211;48.548;2.704;2023-01-19T11:39:52;100045.94;;;17.63;47.45
74680;BME280;63211;48.548;2.704;2023-01-19T11:42:20;100050.56;;;17.62;46.15
74680;BME280;63211;48.548;2.704;2023-01-19T11:44:57;100041.56;;;17.62;46.98
74680;BME280;63211;48.548;2.704;2023-01-19T11:47:27;100042.63;;;17.61;47.39
74680;BME280;63211;48.548;2.704;2023-01-19T11:49:58;100049.94;;;17.60;47.49
74680;BME280;63211;48.548;2.704;2023-01-19T11:52:27;100042.63;;;17.61;47.86
74680;BME280;63211;48.548;2.704;2023-01-19T11:55:02;100038.25;;;17.60;47.74
74680;BME280;63211;48.548;2.704;2023-01-19T11:57:30;100007.94;;;17.44;47.01
74680;BME280;63211;48.548;2.704;2023-01-19T11:59:59;100039.06;;;17.60;47.13
74680;BME280;63211;48.548;2.704;2023-01-19T12:02:33;100031.50;;;17.62;46.59
74680;BME280;63211;48.548;2.704;2023-01-19T12:05:13;100032.31;;;17.63;45.90
74680;BME280;63211;48.548;2.704;2023-01-19T12:07:43;100018.13;;;17.61;46.01
74680;BME280;63211;48.548;2.704;2023-01-19T12:10:20;100020.84;;;17.61;46.02
74680;BME280;63211;48.548;2.704;2023-01-19T12:12:48;100021.31;;;17.69;46.43
74680;BME280;63211;48.548;2.704;2023-01-19T12:15:21;100014.94;;;17.75;47.04
74680;BME280;63211;48.548;2.704;2023-01-19T12:17:52;100012.34;;;17.80;46.69
74680;BME280;63211;48.548;2.704;2023-01-19T12:20:25;100014.13;;;17.87;52.97
74680;BME280;63211;48.548;2.704;2023-01-19T12:22:59;100005.78;;;17.93;51.88
74680;BME280;63211;48.548;2.704;2023-01-19T12:25:35;100004.84;;;17.99;56.47
74680;BME280;63211;48.548;2.704;2023-01-19T12:28:08;99999.53;;;18.04;52.97
74680;BME280;63211;48.548;2.704;2023-01-19T12:30:36;100002.31;;;18.09;52.95
74680;BME280;63211;48.548;2.704;2023-01-19T12:33:30;99998.66;;;18.15;53.50
74680;BME280;63211;48.548;2.704;2023-01-19T12:35:59;99997.09;;;18.19;50.62
74680;BME280;63211;48.548;2.704;2023-01-19T12:38:46;99996.63;;;18.23;51.50
74680;BME280;63211;48.548;2.704;2023-01-19T12:41:16;99994.56;;;18.30;53.15
74680;BME280;63211;48.548;2.704;2023-01-19T12:43:44;99987.22;;;18.30;50.71
74680;BME280;63211;48.548;2.704;2023-01-19T12:46:18;99986.75;;;18.33;50.20
74680;BME280;63211;48.548;2.704;2023-01-19T12:48:46;99982.94;;;18.34;49.49
74680;BME280;63211;48.548;2.704;2023-01-19T12:51:21;99981.41;;;18.38;48.84
74680;BME280;63211;48.548;2.704;2023-01-19T12:53:50;99982.28;;;18.27;49.54
74680;BME280;63211;48.548;2.704;2023-01-19T12:56:18;99977.91;;;18.26;49.04
74680;BME280;63211;48.548;2.704;2023-01-19T12:58:47;99977.16;;;18.31;48.47
74680;BME280;63211;48.548;2.704;2023-01-19T13:01:16;99975.41;;;18.25;48.59
74680;BME280;63211;48.548;2.704;2023-01-19T13:03:58;99967.47;;;18.23;48.93